Flight Track Log - Related Links

Times and Time Zones

All times are in EDT time to prevent confusion due to time zone crossing. See the N960DL flight status page for this flight to view local times or setup timezone preferences in your user account.

Time Position Orientation Groundspeed Altitude Reporting Facility
EDT Latitude Longitude Course Direction KTS MPH feet Rate Location/Type
Sun 03:55:45 PM 33.6333 -84.3833 199° South 176 203 2,100  Level Atlanta TRACON
Sun 03:56:51 PM 33.6167 -84.3000 103° East 264 304 4,000 2,381 Climbing Atlanta TRACON
Sun 03:57:51 PM 33.5500 -84.2833 168° South 274 315 7,100 2,528 Climbing Atlanta TRACON
Sun 03:58:00 PM 33.3778 -84.2878 194° South  Level FlightAware Approximate
Sun 03:59:00 PM 33.2617 -84.3217 194° South  Level FlightAware Approximate
Sun 03:59:30 PM 33.4267 -84.3100 190° South 269 310 10,700  Level Atlanta Center
Sun 04:00:00 PM 33.1456 -84.3555 194° South  Level FlightAware Approximate
Sun 04:00:30 PM 33.3325 -84.3322 191° South 315 362 11,900  Level Atlanta Center
Sun 04:01:00 PM 33.0292 -84.3850 199° South  Level FlightAware Approximate
Sun 04:01:30 PM 33.2281 -84.3592 192° South 375 432 14,100  Level Atlanta Center
Sun 04:02:30 PM 33.1217 -84.3961 196° South 399 459 16,400 2,000 Climbing Atlanta Center
Sun 04:03:30 PM 33.0044 -84.4475 200° South 405 466 18,100 1,800 Climbing Atlanta Center
Sun 04:04:30 PM 32.8917 -84.5014 202° Southwest 421 484 20,000 1,650 Climbing Atlanta Center
Sun 04:05:30 PM 32.7747 -84.5503 199° South 437 503 21,400 2,300 Climbing Atlanta Center
Sun 04:06:30 PM 32.6617 -84.6014 201° Southwest 442 509 24,600 2,400 Climbing Atlanta Center
Sun 04:07:30 PM 32.5528 -84.6475 200° South 432 497 26,200 1,300 Climbing Atlanta Center
Sun 04:08:30 PM 32.4442 -84.6886 198° South 425 489 27,200 900 Climbing Atlanta Center
Sun 04:09:30 PM 32.3353 -84.7344 200° South 419 482 28,000 850 Climbing Atlanta Center
Sun 04:10:30 PM 32.2183 -84.7656 193° South 427 491 28,900 900 Climbing Atlanta Center
Sun 04:11:30 PM 32.0953 -84.7475 173° South 432 497 29,800 800 Climbing Atlanta Center
Sun 04:12:30 PM 31.9744 -84.7194 169° South 438 504 30,500 480 Climbing Atlanta Center
Sun 04:14:25 PM 31.7367 -84.6586 168° South 452 520 31,200 480 Climbing Jacksonville Center
Sun 04:15:25 PM 31.6117 -84.6294 169° South 452 520 31,900 900 Climbing Jacksonville Center
Sun 04:16:25 PM 31.4889 -84.6006 169° South 452 520 33,000 550 Climbing Jacksonville Center
Sun 04:17:25 PM 31.3683 -84.5689 167° South 447 514 33,000  Level Jacksonville Center
Sun 04:18:25 PM 31.2475 -84.5403 169° South 447 514 33,000  Level Jacksonville Center
Sun 04:19:25 PM 31.1247 -84.5114 169° South 447 514 33,000  Level Jacksonville Center
Sun 04:20:25 PM 31.0086 -84.4536 157° South 447 514 33,000  Level Jacksonville Center
Sun 04:21:25 PM 30.8944 -84.3911 155° Southeast 452 520 33,000  Level Jacksonville Center
Sun 04:22:25 PM 30.7783 -84.3289 155° Southeast 452 520 33,000  Level Jacksonville Center
Sun 04:23:25 PM 30.6642 -84.2644 154° Southeast 458 527 33,000  Level Jacksonville Center
Sun 04:24:25 PM 30.5728 -84.2219 158° South 453 521 33,000  Level Jacksonville Center
Sun 04:25:25 PM 30.4503 -84.1506 153° Southeast 448 516 33,000  Level Jacksonville Center
Sun 04:26:25 PM 30.3381 -84.0864 154° Southeast 448 516 33,000  Level Jacksonville Center
Sun 04:27:25 PM 30.2261 -84.0250 155° Southeast 448 516 33,000  Level Jacksonville Center
Sun 04:28:25 PM 30.1117 -83.9611 154° Southeast 448 516 33,000  Level Jacksonville Center
Sun 04:29:25 PM 29.9975 -83.8997 155° Southeast 448 516 33,000  Level Jacksonville Center
Sun 04:30:25 PM 29.8850 -83.8389 155° Southeast 443 510 33,000  Level Jacksonville Center
Sun 04:31:25 PM 29.7603 -83.7683 154° Southeast 443 510 33,000  Level Jacksonville Center
Sun 04:32:25 PM 29.6458 -83.7050 154° Southeast 443 510 33,000  Level Jacksonville Center
Sun 04:33:25 PM 29.5336 -83.6469 156° South 448 516 33,000  Level Jacksonville Center
Sun 04:34:25 PM 29.4211 -83.5839 154° Southeast 448 516 33,000  Level Jacksonville Center
Sun 04:35:25 PM 29.3089 -83.5214 154° Southeast 448 516 33,000  Level Jacksonville Center
Sun 04:36:25 PM 29.1942 -83.4633 156° South 443 510 33,000  Level Jacksonville Center
Sun 04:37:25 PM 29.0797 -83.4033 155° Southeast 443 510 33,000  Level Jacksonville Center
Sun 04:38:25 PM 28.9694 -83.3411 154° Southeast 443 510 33,000  Level Jacksonville Center
Sun 04:39:25 PM 28.8506 -83.2931 161° South 438 504 33,000  Level Jacksonville Center
Sun 04:40:25 PM 28.7317 -83.2572 165° South 438 504 33,000 -1,565 Level Jacksonville Center
Sun 04:42:29 PM 28.4758 -83.1939 168° South 448 516 28,200 -1,957 Descending Miami Center
Sun 04:43:29 PM 28.3561 -83.1611 166° South 448 516 27,000 -600 Descending Miami Center
Sun 04:44:29 PM 28.2325 -83.1261 166° South 448 516 27,000  Level Miami Center
Sun 04:45:29 PM 28.1069 -83.0931 167° South 459 528 27,000  Level Miami Center
Sun 04:46:29 PM 27.9811 -83.0603 167° South 465 535 27,000  Level Miami Center
Sun 04:47:29 PM 27.8553 -83.0278 167° South 465 535 27,000  Level Miami Center
Sun 04:48:29 PM 27.7314 -82.9953 167° South 465 535 27,000 -50 Level Miami Center
Sun 04:49:29 PM 27.6036 -82.9603 166° South 470 541 26,900  Descending Miami Center
Sun 04:50:29 PM 27.4778 -82.9278 167° South 475 547 27,000 -100 Climbing Miami Center
Sun 04:51:29 PM 27.3497 -82.8953 167° South 475 547 26,700 -1,500 Descending Miami Center
Sun 04:52:29 PM 27.2281 -82.8633 167° South 465 535 24,000 -2,700 Descending Miami Center
Sun 04:53:29 PM 27.1156 -82.8086 157° South 446 513 21,300 -2,550 Descending Miami Center
Sun 04:54:29 PM 27.0208 -82.7269 142° Southeast 431 496 18,900 -2,300 Descending Miami Center
Sun 04:55:29 PM 26.9344 -82.6411 138° Southeast 426 490 16,700 -2,250 Descending Miami Center
Sun 04:56:29 PM 26.8672 -82.5469 129° Southeast 404 465 14,400 -2,300 Descending Miami Center
Sun 04:57:29 PM 26.8256 -82.4403 114° Southeast 385 443 12,100 -1,650 Descending Miami Center
Sun 04:58:29 PM 26.7939 -82.3411 110° East 361 415 11,100 -1,000 Descending Miami Center
Sun 04:59:29 PM 26.7508 -82.2600 121° Southeast 328 377 10,100 -1,300 Descending Miami Center
Sun 05:00:29 PM 26.6881 -82.2083 144° Southeast 289 333 8,500 -1,600 Descending Miami Center
Sun 05:01:29 PM 26.6253 -82.1589 145° Southeast 284 327 6,900 -1,300 Descending Miami Center
Sun 05:02:29 PM 26.5664 -82.1100 143° Southeast 279 321 5,900 -700 Descending Miami Center
Sun 05:03:29 PM 26.5058 -82.0561 141° Southeast 279 321 5,500 -550 Descending Miami Center
Sun 05:04:29 PM 26.4450 -82.0069 144° Southeast 279 321 4,800 -650 Descending Miami Center
Sun 05:05:29 PM 26.4011 -81.9425 127° Southeast 273 314 4,200 -600 Descending Miami Center
Sun 05:07:00 PM 26.5063 -81.7966 50° Northeast  Level Estimated
Sun 05:14:00 PM 26.5333 -81.7500 50° Northeast  Level FlightAware Approximate
Sun 05:15:00 PM 26.5362 -81.7552 50° Northeast  Level Estimated
Sun 05:16:00 PM 26.5333 -81.7500 50° Northeast  Level FlightAware Approximate
Sun 05:17:00 PM 26.5362 -81.7552 50° Northeast  Level Estimated
Sun 05:18:00 PM 26.5333 -81.7500 50° Northeast  Level FlightAware Approximate
Sun 05:19:00 PM 26.5362 -81.7552 50° Northeast  Level Estimated
Sun 05:20:00 PM 26.5333 -81.7500 50° Northeast  Level FlightAware Approximate

Login

Don't have an account? Register now (free) for customized features, flight alerts, and more!